Time;durP1;ratioP1;P1;durP2;ratioP2;P2;SDS_P1;SDS_P2;PMS_P1;PMS_P2;Temp;Humidity;BMP_temperature;BMP_pressure;BME280_temperature;BME280_humidity;BME280_pressure;Samples;Min_cycle;Max_cycle;Signal;HPM_P1;HPM_P2
2023/10/27 00:00:59;;;;;;;;;;;11.00;99.90;;;;;;5086419;28;19987;-71
2023/10/27 00:03:26;;;;;;;;;;;10.90;99.90;;;;;;5085996;28;20122;-70
2023/10/27 00:05:53;;;;;;;;;;;10.90;99.90;;;;;;5085918;28;19983;-71
2023/10/27 00:08:19;;;;;;;;;;;10.90;99.90;;;;;;5085933;28;19982;-73
2023/10/27 00:10:47;;;;;;;;;;;10.90;99.90;;;;;;5085868;28;19991;-72
2023/10/27 00:13:14;;;;;;;;;;;10.90;99.90;;;;;;5086005;28;19970;-71
2023/10/27 00:15:40;;;;;;;;;;;10.90;99.90;;;;;;5085396;28;19974;-71
2023/10/27 00:18:07;;;;;;;;;;;10.80;99.90;;;;;;5085835;28;19920;-72
2023/10/27 00:20:34;;;;;;;;;;;10.80;99.90;;;;;;5085997;28;19948;-73
2023/10/27 00:23:00;;;;;;;;;;;10.80;99.90;;;;;;5086055;28;20064;-71
2023/10/27 00:25:27;;;;;;;;;;;10.80;99.90;;;;;;5085053;28;20214;-72
2023/10/27 00:27:55;;;;;;;;;;;10.70;99.90;;;;;;5084077;28;19992;-72
2023/10/27 00:30:21;;;;;;;;;;;10.70;99.90;;;;;;5085518;28;20229;-71
2023/10/27 00:32:48;;;;;;;;;;;10.80;99.90;;;;;;5085931;28;19921;-71
2023/10/27 00:35:15;;;;;;;;;;;10.70;99.90;;;;;;5090050;28;19960;-71
2023/10/27 00:37:42;;;;;;;;;;;10.80;99.90;;;;;;5085852;28;19952;-72
2023/10/27 00:40:09;;;;;;;;;;;10.70;99.90;;;;;;5085941;28;20190;-71
2023/10/27 00:42:35;;;;;;;;;;;10.70;99.90;;;;;;5085577;28;19996;-71
2023/10/27 00:45:04;;;;;;;;;;;10.80;99.90;;;;;;5084893;28;20122;-71
2023/10/27 00:47:31;;;;;;;;;;;10.80;99.90;;;;;;5084857;28;19956;-71
2023/10/27 00:49:57;;;;;;;;;;;10.80;99.90;;;;;;5085487;28;19924;-71
2023/10/27 00:52:25;;;;;;;;;;;10.80;99.90;;;;;;5085262;28;20233;-72
2023/10/27 00:54:52;;;;;;;;;;;10.80;99.90;;;;;;5085255;28;20177;-72
2023/10/27 00:57:18;;;;;;;;;;;10.80;99.90;;;;;;5084916;28;20007;-71
2023/10/27 00:59:46;;;;;;;;;;;10.80;99.90;;;;;;5085334;28;19951;-71
2023/10/27 01:02:14;;;;;;;;;;;10.80;99.90;;;;;;5085143;28;19925;-71
2023/10/27 01:04:40;;;;;;;;;;;10.80;99.90;;;;;;5084337;28;19995;-71
2023/10/27 01:07:07;;;;;;;;;;;10.80;99.90;;;;;;5084329;28;20186;-72
2023/10/27 01:09:34;;;;;;;;;;;10.80;99.90;;;;;;5083330;28;19920;-71
2023/10/27 01:12:00;;;;;;;;;;;10.70;99.90;;;;;;5085509;28;19920;-72
2023/10/27 01:14:27;;;;;;;;;;;10.70;99.90;;;;;;5084730;28;19952;-72
2023/10/27 01:16:56;;;;;;;;;;;10.70;99.90;;;;;;5084630;28;19966;-71
2023/10/27 01:19:24;;;;;;;;;;;10.70;99.90;;;;;;5079118;28;19992;-71
2023/10/27 01:21:51;;;;;;;;;;;10.70;99.90;;;;;;5071498;28;19960;-71
2023/10/27 01:24:19;;;;;;;;;;;10.70;99.90;;;;;;5074705;28;19999;-71
2023/10/27 01:26:46;;;;;;;;;;;10.70;99.90;;;;;;5075445;28;19927;-71
2023/10/27 01:29:13;;;;;;;;;;;10.70;99.90;;;;;;5072133;28;20153;-70
2023/10/27 01:31:39;;;;;;;;;;;10.60;99.90;;;;;;5071986;28;20198;-72
2023/10/27 01:34:06;;;;;;;;;;;10.60;99.90;;;;;;5073105;28;19927;-71
2023/10/27 01:36:32;;;;;;;;;;;10.60;99.90;;;;;;5077198;28;20105;-71
2023/10/27 01:38:59;;;;;;;;;;;10.60;99.90;;;;;;5081559;28;19948;-71
2023/10/27 01:41:27;;;;;;;;;;;10.60;99.90;;;;;;5079494;28;19920;-72
2023/10/27 01:43:54;;;;;;;;;;;10.60;99.90;;;;;;5079119;28;19997;-71
2023/10/27 01:46:20;;;;;;;;;;;10.60;99.90;;;;;;5078491;28;19920;-71
2023/10/27 01:48:47;;;;;;;;;;;10.60;99.90;;;;;;5071318;28;19921;-71
2023/10/27 01:51:14;;;;;;;;;;;10.60;99.90;;;;;;5078082;28;19991;-71
2023/10/27 01:53:41;;;;;;;;;;;10.60;99.90;;;;;;5071049;28;19921;-70
2023/10/27 01:56:08;;;;;;;;;;;10.60;99.90;;;;;;5076728;28;19984;-71
2023/10/27 01:58:34;;;;;;;;;;;10.50;99.90;;;;;;5071397;28;19978;-71
2023/10/27 02:01:01;;;;;;;;;;;10.60;99.90;;;;;;5071735;28;19921;-71
2023/10/27 02:03:28;;;;;;;;;;;10.60;99.90;;;;;;5077595;28;19927;-71
2023/10/27 02:05:54;;;;;;;;;;;10.50;99.90;;;;;;5070126;28;19991;-71
2023/10/27 02:08:21;;;;;;;;;;;10.50;99.90;;;;;;5073642;28;19927;-71
2023/10/27 02:10:48;;;;;;;;;;;10.50;99.90;;;;;;5074882;28;20091;-70
2023/10/27 02:13:14;;;;;;;;;;;10.50;99.90;;;;;;5073817;28;19920;-71
2023/10/27 02:15:42;;;;;;;;;;;10.50;99.90;;;;;;5070338;28;19948;-71
2023/10/27 02:18:09;;;;;;;;;;;10.50;99.90;;;;;;5077334;28;19959;-71
2023/10/27 02:20:35;;;;;;;;;;;10.50;99.90;;;;;;5073699;28;20193;-71
2023/10/27 02:23:02;;;;;;;;;;;10.50;99.90;;;;;;5075703;28;19999;-71
2023/10/27 02:25:28;;;;;;;;;;;10.50;99.90;;;;;;5081569;28;19920;-71
2023/10/27 02:27:55;;;;;;;;;;;10.50;99.90;;;;;;5075435;28;19927;-71
2023/10/27 02:30:22;;;;;;;;;;;10.50;99.90;;;;;;5071508;28;19983;-71
2023/10/27 02:32:50;;;;;;;;;;;10.50;99.90;;;;;;5069959;28;19921;-71
2023/10/27 02:35:16;;;;;;;;;;;10.50;99.90;;;;;;5072260;28;19947;-71
2023/10/27 02:37:43;;;;;;;;;;;10.50;99.90;;;;;;5080391;28;19948;-71
2023/10/27 02:40:10;;;;;;;;;;;10.50;99.90;;;;;;5071980;28;19920;-71
2023/10/27 02:42:39;;;;;;;;;;;10.50;99.90;;;;;;5078487;28;20030;-71
2023/10/27 02:45:05;;;;;;;;;;;10.40;99.90;;;;;;5073007;28;19983;-70
2023/10/27 02:47:32;;;;;;;;;;;10.50;99.90;;;;;;5070796;28;19916;-71
2023/10/27 02:50:00;;;;;;;;;;;10.40;99.90;;;;;;5070475;28;19983;-71
2023/10/27 02:52:27;;;;;;;;;;;10.40;99.90;;;;;;5076695;28;20249;-71
2023/10/27 02:54:53;;;;;;;;;;;10.30;99.90;;;;;;5074727;28;19929;-71
2023/10/27 02:57:20;;;;;;;;;;;10.30;99.90;;;;;;5072373;28;20269;-71
2023/10/27 02:59:46;;;;;;;;;;;10.30;99.90;;;;;;5069940;28;19992;-71
2023/10/27 03:02:13;;;;;;;;;;;10.30;99.90;;;;;;5077216;28;20009;-71
2023/10/27 03:04:40;;;;;;;;;;;10.30;99.90;;;;;;5069376;28;20477;-71
2023/10/27 03:07:07;;;;;;;;;;;10.30;99.90;;;;;;5076003;28;19983;-71
2023/10/27 03:09:34;;;;;;;;;;;10.30;99.90;;;;;;5073090;28;19951;-71
2023/10/27 03:12:01;;;;;;;;;;;10.30;99.90;;;;;;5072991;28;19983;-71
2023/10/27 03:14:27;;;;;;;;;;;10.30;99.90;;;;;;5072859;28;19970;-71
2023/10/27 03:16:54;;;;;;;;;;;10.30;99.90;;;;;;5072462;28;19988;-71
2023/10/27 03:19:20;;;;;;;;;;;10.30;99.90;;;;;;5074726;28;19991;-70
2023/10/27 03:21:47;;;;;;;;;;;10.30;99.90;;;;;;5071390;28;19987;-71
2023/10/27 03:24:15;;;;;;;;;;;10.20;99.90;;;;;;5072168;28;20116;-71
2023/10/27 03:26:42;;;;;;;;;;;10.30;99.90;;;;;;5074320;28;19959;-71
2023/10/27 03:29:08;;;;;;;;;;;10.30;99.90;;;;;;5071229;28;20157;-71
2023/10/27 03:31:35;;;;;;;;;;;10.30;99.90;;;;;;5071462;28;20215;-71
2023/10/27 03:34:02;;;;;;;;;;;10.30;99.90;;;;;;5074673;28;19988;-70
2023/10/27 03:36:29;;;;;;;;;;;10.30;99.90;;;;;;5076655;28;19950;-71
2023/10/27 03:38:55;;;;;;;;;;;10.20;99.90;;;;;;5076759;28;19982;-71
2023/10/27 03:41:23;;;;;;;;;;;10.20;99.90;;;;;;5076482;28;19927;-71
2023/10/27 03:43:50;;;;;;;;;;;10.20;99.90;;;;;;5081889;28;19987;-70
2023/10/27 03:46:16;;;;;;;;;;;10.20;99.90;;;;;;5076167;28;19921;-71
2023/10/27 03:48:44;;;;;;;;;;;10.20;99.90;;;;;;5081173;28;19927;-72
2023/10/27 04:38:51;;;;;;;;;;;9.50;99.90;;;;;;5134253;27;19990;-71
2023/10/27 04:41:18;;;;;;;;;;;9.50;99.90;;;;;;5110878;28;19920;-70
2023/10/27 04:43:44;;;;;;;;;;;9.60;99.90;;;;;;5111443;28;19924;-70
2023/10/27 04:46:11;;;;;;;;;;;9.60;99.90;;;;;;5137066;28;19920;-70
2023/10/27 04:48:38;;;;;;;;;;;9.60;99.90;;;;;;5131141;28;19982;-71
2023/10/27 04:51:05;;;;;;;;;;;9.60;99.90;;;;;;5133999;28;19920;-70
2023/10/27 04:53:32;;;;;;;;;;;9.70;99.90;;;;;;5132249;28;19920;-70
2023/10/27 04:56:00;;;;;;;;;;;9.70;99.90;;;;;;5128624;28;19962;-70
2023/10/27 04:58:26;;;;;;;;;;;9.70;99.90;;;;;;5120196;28;19988;-71
2023/10/27 05:00:53;;;;;;;;;;;9.70;99.90;;;;;;5120394;28;19959;-71
2023/10/27 05:03:19;;;;;;;;;;;9.70;99.90;;;;;;5120349;28;19955;-71
2023/10/27 05:05:46;;;;;;;;;;;9.70;99.90;;;;;;5120524;28;19920;-72
2023/10/27 05:08:12;;;;;;;;;;;9.80;99.90;;;;;;5120101;28;19927;-71
2023/10/27 05:10:40;;;;;;;;;;;9.70;99.90;;;;;;5120342;28;19952;-71
2023/10/27 05:13:08;;;;;;;;;;;9.70;99.90;;;;;;5119898;28;19920;-71
2023/10/27 05:15:37;;;;;;;;;;;9.70;99.90;;;;;;5120491;28;20161;-72
2023/10/27 05:18:05;;;;;;;;;;;9.70;99.90;;;;;;5119871;28;19955;-73
2023/10/27 05:20:36;;;;;;;;;;;9.70;99.90;;;;;;5119401;28;19926;-73
2023/10/27 05:23:02;;;;;;;;;;;9.70;99.90;;;;;;5119633;28;19952;-73
2023/10/27 05:25:29;;;;;;;;;;;9.70;99.90;;;;;;5120386;28;19928;-72
2023/10/27 05:27:55;;;;;;;;;;;9.70;99.90;;;;;;5119767;28;20113;-72
2023/10/27 05:30:23;;;;;;;;;;;9.70;99.90;;;;;;5119770;28;19920;-73
2023/10/27 05:32:50;;;;;;;;;;;9.70;99.90;;;;;;5119925;28;19967;-72
2023/10/27 05:35:17;;;;;;;;;;;9.70;99.90;;;;;;5119586;28;20257;-73
2023/10/27 05:37:43;;;;;;;;;;;9.70;99.90;;;;;;5117474;28;19979;-71
2023/10/27 05:40:10;;;;;;;;;;;9.70;99.90;;;;;;5105446;28;19927;-72
2023/10/27 05:42:37;;;;;;;;;;;9.70;99.90;;;;;;5105906;28;19959;-72
2023/10/27 05:45:04;;;;;;;;;;;9.60;99.90;;;;;;5105547;28;19920;-72
2023/10/27 05:47:32;;;;;;;;;;;9.60;99.90;;;;;;5105771;28;19987;-70
2023/10/27 05:49:58;;;;;;;;;;;9.60;99.90;;;;;;5105461;28;19920;-72
2023/10/27 05:52:25;;;;;;;;;;;9.60;99.90;;;;;;5105987;28;19926;-72
2023/10/27 05:54:51;;;;;;;;;;;9.60;99.90;;;;;;5105544;28;20264;-72
2023/10/27 05:57:18;;;;;;;;;;;9.60;99.90;;;;;;5105476;28;19962;-72
2023/10/27 05:59:45;;;;;;;;;;;9.60;99.90;;;;;;5105140;28;19920;-72
2023/10/27 06:02:11;;;;;;;;;;;9.60;99.90;;;;;;5105775;28;19920;-72
2023/10/27 06:04:39;;;;;;;;;;;9.60;99.90;;;;;;5105805;28;20094;-72
2023/10/27 06:07:06;;;;;;;;;;;9.60;99.90;;;;;;5105362;28;20265;-73
2023/10/27 06:09:33;;;;;;;;;;;9.60;99.90;;;;;;5105195;28;20161;-73
2023/10/27 06:11:59;;;;;;;;;;;9.60;99.90;;;;;;5089224;28;19920;-72
2023/10/27 06:14:26;;;;;;;;;;;9.60;99.90;;;;;;5105643;28;19983;-72
2023/10/27 06:16:52;;;;;;;;;;;9.60;99.90;;;;;;5105064;28;19955;-73
2023/10/27 06:19:20;;;;;;;;;;;9.60;99.90;;;;;;5114756;22;19927;-77
2023/10/27 06:21:48;;;;;;;;;;;9.60;99.90;;;;;;5085479;28;19967;-76
2023/10/27 06:24:15;;;;;;;;;;;9.60;99.90;;;;;;5085539;28;19948;-77
2023/10/27 06:26:42;;;;;;;;;;;9.60;99.90;;;;;;5085198;28;19974;-77
2023/10/27 06:29:08;;;;;;;;;;;9.60;99.90;;;;;;5082644;28;19962;-77
2023/10/27 06:31:35;;;;;;;;;;;9.60;99.90;;;;;;5082590;28;20186;-76
2023/10/27 06:34:02;;;;;;;;;;;9.60;99.90;;;;;;5085312;28;19987;-76
2023/10/27 06:36:30;;;;;;;;;;;9.60;99.90;;;;;;5085389;28;19935;-76
2023/10/27 06:38:59;;;;;;;;;;;9.60;99.90;;;;;;5084853;28;19920;-76
2023/10/27 06:41:25;;;;;;;;;;;9.70;99.90;;;;;;5085163;28;19924;-76
2023/10/27 06:43:52;;;;;;;;;;;9.70;99.90;;;;;;5085536;28;19948;-76
2023/10/27 06:46:19;;;;;;;;;;;9.70;99.90;;;;;;5085054;28;19987;-76
2023/10/27 06:48:45;;;;;;;;;;;9.70;99.90;;;;;;5093815;28;19974;-76
2023/10/27 06:51:12;;;;;;;;;;;9.60;99.90;;;;;;5087916;28;20094;-76
2023/10/27 06:53:40;;;;;;;;;;;9.60;99.90;;;;;;5087651;28;19927;-75
2023/10/27 06:56:08;;;;;;;;;;;9.60;99.90;;;;;;5084927;28;19929;-76
2023/10/27 06:58:35;;;;;;;;;;;9.60;99.90;;;;;;5084588;28;20034;-76
2023/10/27 07:01:05;;;;;;;;;;;9.60;99.90;;;;;;5085105;28;19952;-76
2023/10/27 07:03:32;;;;;;;;;;;9.50;99.90;;;;;;5084313;28;20209;-76
2023/10/27 07:05:59;;;;;;;;;;;9.50;99.90;;;;;;5084665;28;19925;-76
2023/10/27 07:08:26;;;;;;;;;;;9.50;99.90;;;;;;5083905;28;19958;-74
2023/10/27 07:10:57;;;;;;;;;;;9.50;99.90;;;;;;5083933;28;19920;-76
2023/10/27 07:13:25;;;;;;;;;;;9.50;99.90;;;;;;5084059;28;19920;-76
2023/10/27 07:15:52;;;;;;;;;;;9.50;99.90;;;;;;5084335;28;19983;-76
2023/10/27 07:18:19;;;;;;;;;;;9.50;99.90;;;;;;5083841;28;20124;-76
2023/10/27 07:20:46;;;;;;;;;;;9.50;99.90;;;;;;5084401;28;19920;-77
2023/10/27 07:23:12;;;;;;;;;;;9.50;99.90;;;;;;5086392;28;19921;-76
2023/10/27 07:25:39;;;;;;;;;;;9.50;99.90;;;;;;5086989;28;19983;-76
2023/10/27 07:28:06;;;;;;;;;;;9.40;99.90;;;;;;5085596;28;20272;-76
2023/10/27 07:30:34;;;;;;;;;;;9.40;99.90;;;;;;5087127;28;19921;-77
2023/10/27 07:33:00;;;;;;;;;;;9.50;99.90;;;;;;5084061;28;20161;-76
2023/10/27 07:35:27;;;;;;;;;;;9.40;99.90;;;;;;5084197;28;19952;-76
2023/10/27 07:37:54;;;;;;;;;;;9.40;99.90;;;;;;5083761;28;19952;-77
2023/10/27 07:40:20;;;;;;;;;;;9.50;99.90;;;;;;5083636;28;20284;-76
2023/10/27 07:42:47;;;;;;;;;;;9.50;99.90;;;;;;5083963;28;19921;-77
2023/10/27 07:45:13;;;;;;;;;;;9.50;99.90;;;;;;5084079;28;19988;-77
2023/10/27 07:47:41;;;;;;;;;;;9.50;99.90;;;;;;5083174;28;19927;-76
2023/10/27 07:50:08;;;;;;;;;;;9.50;99.90;;;;;;5083582;28;19959;-76
2023/10/27 07:52:35;;;;;;;;;;;9.50;99.90;;;;;;5083898;28;19951;-77
2023/10/27 07:55:02;;;;;;;;;;;9.50;99.90;;;;;;5085839;28;19948;-76
2023/10/27 07:57:29;;;;;;;;;;;9.50;99.90;;;;;;5083358;28;19920;-76
2023/10/27 07:59:56;;;;;;;;;;;9.60;99.90;;;;;;5075314;28;19992;-77
2023/10/27 08:02:22;;;;;;;;;;;9.60;99.90;;;;;;5083668;28;19991;-76
2023/10/27 08:04:50;;;;;;;;;;;9.60;99.90;;;;;;5083631;28;19921;-76
2023/10/27 08:07:17;;;;;;;;;;;9.60;99.90;;;;;;5083455;28;19921;-76
2023/10/27 08:09:43;;;;;;;;;;;9.70;99.90;;;;;;5083069;28;19929;-76
2023/10/27 08:12:10;;;;;;;;;;;9.80;99.90;;;;;;5078691;28;19987;-76
2023/10/27 08:14:37;;;;;;;;;;;9.80;99.90;;;;;;5082990;28;19951;-77
2023/10/27 08:17:04;;;;;;;;;;;9.80;99.90;;;;;;5082822;28;20277;-77
2023/10/27 08:19:30;;;;;;;;;;;9.80;99.90;;;;;;5082966;28;19956;-77
2023/10/27 08:21:58;;;;;;;;;;;9.80;99.90;;;;;;5074943;28;19963;-75
2023/10/27 08:24:25;;;;;;;;;;;9.80;99.90;;;;;;5083365;28;19983;-76
2023/10/27 08:26:51;;;;;;;;;;;9.80;99.90;;;;;;5084140;28;19987;-75
2023/10/27 08:29:18;;;;;;;;;;;9.80;99.90;;;;;;5083339;28;20094;-76
2023/10/27 08:31:44;;;;;;;;;;;9.70;99.90;;;;;;5098086;28;19926;-76
2023/10/27 08:34:12;;;;;;;;;;;9.70;99.90;;;;;;5090719;28;20247;-76
2023/10/27 08:36:39;;;;;;;;;;;9.80;99.90;;;;;;5091018;28;19928;-76
2023/10/27 08:39:07;;;;;;;;;;;9.80;99.90;;;;;;5090925;28;19924;-76
2023/10/27 08:41:34;;;;;;;;;;;9.90;99.90;;;;;;5090245;28;20251;-76
2023/10/27 08:44:00;;;;;;;;;;;9.80;99.90;;;;;;5089796;28;19980;-75
2023/10/27 08:46:27;;;;;;;;;;;9.80;99.90;;;;;;5092714;28;19951;-76
2023/10/27 08:48:55;;;;;;;;;;;9.90;99.90;;;;;;5085747;28;19962;-77
2023/10/27 08:51:22;;;;;;;;;;;9.90;99.90;;;;;;5085368;28;19927;-76
2023/10/27 08:53:48;;;;;;;;;;;10.00;99.90;;;;;;5084785;28;20112;-76
2023/10/27 08:56:16;;;;;;;;;;;10.10;99.90;;;;;;5082869;28;19987;-77
2023/10/27 08:58:48;;;;;;;;;;;10.10;99.90;;;;;;5090488;28;19955;-76
2023/10/27 09:01:14;;;;;;;;;;;10.20;99.90;;;;;;5086240;28;20160;-76
2023/10/27 09:03:41;;;;;;;;;;;10.30;99.90;;;;;;5089405;28;19984;-76
2023/10/27 09:06:08;;;;;;;;;;;10.40;99.90;;;;;;5088432;28;19921;-75
2023/10/27 09:08:35;;;;;;;;;;;10.40;99.90;;;;;;5092772;28;19920;-75
2023/10/27 09:11:01;;;;;;;;;;;10.50;99.90;;;;;;5082826;28;19981;-75
2023/10/27 09:13:38;;;;;;;;;;;10.50;99.90;;;;;;5083687;28;20169;-75
2023/10/27 09:16:05;;;;;;;;;;;10.60;99.90;;;;;;5088170;28;20177;-75
2023/10/27 09:18:35;;;;;;;;;;;10.60;99.90;;;;;;5089087;28;19956;-74
2023/10/27 09:21:02;;;;;;;;;;;10.60;99.90;;;;;;5086380;28;19921;-75
2023/10/27 09:23:43;;;;;;;;;;;10.70;99.90;;;;;;5086394;28;19920;-76
2023/10/27 09:26:09;;;;;;;;;;;10.70;99.90;;;;;;5087184;28;19962;-75
2023/10/27 09:28:38;;;;;;;;;;;10.70;99.90;;;;;;5088675;28;19987;-75
2023/10/27 09:31:05;;;;;;;;;;;10.80;99.90;;;;;;5086173;28;19963;-74
2023/10/27 09:33:31;;;;;;;;;;;10.80;99.90;;;;;;5086322;28;19980;-75
2023/10/27 09:35:59;;;;;;;;;;;10.90;99.90;;;;;;5086312;28;19921;-75
2023/10/27 09:38:26;;;;;;;;;;;10.90;99.90;;;;;;5088851;28;19938;-75
2023/10/27 09:40:53;;;;;;;;;;;11.00;99.90;;;;;;5086463;28;19943;-75
2023/10/27 09:43:20;;;;;;;;;;;11.00;99.90;;;;;;5086339;28;19928;-75
2023/10/27 09:45:51;;;;;;;;;;;11.00;99.90;;;;;;5086043;28;19955;-75
2023/10/27 09:48:20;;;;;;;;;;;11.10;99.90;;;;;;5085098;28;19984;-76
2023/10/27 09:50:49;;;;;;;;;;;11.10;99.90;;;;;;5085727;28;19927;-74
2023/10/27 09:53:15;;;;;;;;;;;11.20;99.90;;;;;;5085935;28;19960;-74
2023/10/27 09:55:43;;;;;;;;;;;11.30;99.90;;;;;;5085395;28;20297;-75
2023/10/27 09:58:10;;;;;;;;;;;11.40;99.90;;;;;;5085484;28;19955;-75
2023/10/27 10:00:37;;;;;;;;;;;11.40;99.90;;;;;;5085585;28;19983;-76
2023/10/27 10:03:06;;;;;;;;;;;11.50;99.90;;;;;;5085470;28;19920;-75
2023/10/27 10:05:48;;;;;;;;;;;11.50;99.90;;;;;;5085186;28;20159;-75
2023/10/27 10:08:14;;;;;;;;;;;11.50;99.90;;;;;;5085335;28;19972;-75
2023/10/27 10:10:41;;;;;;;;;;;11.50;99.90;;;;;;5087631;28;19920;-75
2023/10/27 10:13:08;;;;;;;;;;;11.50;99.90;;;;;;5085456;28;19921;-75
2023/10/27 10:15:35;;;;;;;;;;;11.50;99.90;;;;;;5085120;28;19916;-75
2023/10/27 10:18:03;;;;;;;;;;;11.60;99.90;;;;;;5085071;28;19956;-75
2023/10/27 10:20:49;;;;;;;;;;;11.60;99.90;;;;;;5085092;28;20260;-75
2023/10/27 10:23:17;;;;;;;;;;;11.60;99.90;;;;;;5079599;28;20206;-75
2023/10/27 10:25:50;;;;;;;;;;;11.70;99.90;;;;;;5085125;28;19928;-76
2023/10/27 10:28:27;;;;;;;;;;;11.60;99.90;;;;;;5084618;28;19942;-75
2023/10/27 10:31:09;;;;;;;;;;;11.60;99.90;;;;;;5085155;28;19924;-76
2023/10/27 10:33:35;;;;;;;;;;;11.60;99.90;;;;;;5072262;28;19962;-76
2023/10/27 10:36:21;;;;;;;;;;;11.60;99.90;;;;;;5085108;28;19920;-76
2023/10/27 10:38:57;;;;;;;;;;;11.60;99.90;;;;;;5087438;28;19927;-76
2023/10/27 10:41:39;;;;;;;;;;;11.70;99.90;;;;;;5085254;28;19952;-75
2023/10/27 10:44:13;;;;;;;;;;;11.70;99.90;;;;;;5084881;28;20261;-76
2023/10/27 10:46:40;;;;;;;;;;;11.60;99.90;;;;;;5078825;28;19924;-76
2023/10/27 10:49:07;;;;;;;;;;;11.70;99.90;;;;;;5076519;28;19955;-76
2023/10/27 10:51:37;;;;;;;;;;;11.60;99.90;;;;;;5084814;28;20261;-76
2023/10/27 10:54:10;;;;;;;;;;;11.60;99.90;;;;;;5080365;28;19962;-76
2023/10/27 10:56:37;;;;;;;;;;;11.50;99.90;;;;;;5084993;28;19955;-76
2023/10/27 10:59:04;;;;;;;;;;;11.60;99.90;;;;;;5084351;28;19920;-76
2023/10/27 11:01:30;;;;;;;;;;;11.60;99.90;;;;;;5085004;28;19925;-76
2023/10/27 11:03:58;;;;;;;;;;;11.80;99.90;;;;;;5084930;28;19921;-76
2023/10/27 11:06:25;;;;;;;;;;;12.00;99.90;;;;;;5084579;28;19951;-76
2023/10/27 11:08:52;;;;;;;;;;;12.20;99.90;;;;;;5084670;28;19983;-76
2023/10/27 11:11:21;;;;;;;;;;;12.10;99.90;;;;;;5084471;28;20289;-76
2023/10/27 11:13:49;;;;;;;;;;;12.10;99.90;;;;;;5084594;28;19952;-76
2023/10/27 11:16:17;;;;;;;;;;;12.10;99.90;;;;;;5084399;28;19962;-76
2023/10/27 11:18:44;;;;;;;;;;;12.10;99.90;;;;;;5077827;28;20452;-76
2023/10/27 11:21:14;;;;;;;;;;;12.10;99.90;;;;;;5084611;28;19983;-76
2023/10/27 11:23:41;;;;;;;;;;;12.40;99.90;;;;;;5084167;28;20234;-76
2023/10/27 11:26:08;;;;;;;;;;;12.60;99.90;;;;;;5084543;28;19920;-76
2023/10/27 11:28:39;;;;;;;;;;;12.80;99.90;;;;;;5083433;28;19921;-76
2023/10/27 11:31:08;;;;;;;;;;;13.10;99.90;;;;;;5084114;28;19921;-76
2023/10/27 11:33:55;;;;;;;;;;;13.30;99.90;;;;;;5083906;28;19966;-76
2023/10/27 11:36:21;;;;;;;;;;;13.10;99.90;;;;;;5083628;28;19995;-76
2023/10/27 11:38:48;;;;;;;;;;;12.90;99.90;;;;;;5084288;28;19927;-76
2023/10/27 11:41:15;;;;;;;;;;;12.70;99.90;;;;;;5083897;28;20233;-76
2023/10/27 11:43:43;;;;;;;;;;;12.60;99.90;;;;;;5083338;28;19939;-76
2023/10/27 11:46:13;;;;;;;;;;;12.60;99.90;;;;;;5088468;28;19959;-76
2023/10/27 11:48:40;;;;;;;;;;;12.70;99.90;;;;;;5082835;28;19991;-76
2023/10/27 11:51:07;;;;;;;;;;;12.80;99.90;;;;;;5083830;28;19983;-76
2023/10/27 11:53:34;;;;;;;;;;;13.00;99.90;;;;;;5083881;28;19988;-76
2023/10/27 11:56:00;;;;;;;;;;;13.10;99.90;;;;;;5083726;28;19924;-76
2023/10/27 11:58:27;;;;;;;;;;;13.20;99.90;;;;;;5082965;28;19959;-75
2023/10/27 12:00:55;;;;;;;;;;;13.20;99.90;;;;;;5083764;28;19988;-75
2023/10/27 12:03:22;;;;;;;;;;;12.90;99.90;;;;;;5083424;28;19959;-76
2023/10/27 12:05:48;;;;;;;;;;;12.70;99.90;;;;;;5083431;28;19920;-76
2023/10/27 12:08:15;;;;;;;;;;;12.60;99.90;;;;;;5082872;28;19920;-76
2023/10/27 12:10:41;;;;;;;;;;;12.70;99.90;;;;;;5083940;28;19983;-75
2023/10/27 12:13:08;;;;;;;;;;;12.60;99.90;;;;;;5083786;28;20003;-75
2023/10/27 12:15:35;;;;;;;;;;;12.60;99.90;;;;;;5083407;28;19927;-76
2023/10/27 12:18:04;;;;;;;;;;;12.50;99.90;;;;;;5073066;28;19928;-76
2023/10/27 12:20:30;;;;;;;;;;;12.30;99.90;;;;;;5082546;28;20117;-76
2023/10/27 12:22:57;;;;;;;;;;;12.30;99.90;;;;;;5075321;28;19927;-74
2023/10/27 12:25:24;;;;;;;;;;;12.10;99.90;;;;;;5083328;28;19962;-76
2023/10/27 12:27:51;;;;;;;;;;;12.00;99.90;;;;;;5082220;28;20021;-77
2023/10/27 12:30:23;;;;;;;;;;;11.90;99.90;;;;;;5083221;28;19929;-76
2023/10/27 12:32:50;;;;;;;;;;;11.80;99.90;;;;;;5083499;28;20136;-76
2023/10/27 12:35:18;;;;;;;;;;;11.90;99.90;;;;;;5083542;28;19925;-76
2023/10/27 12:37:44;;;;;;;;;;;11.80;99.90;;;;;;5081701;28;19987;-76
2023/10/27 12:40:12;;;;;;;;;;;11.70;99.90;;;;;;5091226;28;20120;-76
2023/10/27 12:42:39;;;;;;;;;;;11.70;99.90;;;;;;5083313;28;19920;-76
2023/10/27 12:45:06;;;;;;;;;;;11.70;99.90;;;;;;5082403;28;20129;-76
2023/10/27 12:47:33;;;;;;;;;;;11.70;99.90;;;;;;5081996;28;19963;-76
2023/10/27 12:50:00;;;;;;;;;;;11.70;99.90;;;;;;5086498;28;19920;-76
2023/10/27 12:52:29;;;;;;;;;;;11.70;99.90;;;;;;5087186;28;19993;-71
2023/10/27 12:54:56;;;;;;;;;;;11.80;99.90;;;;;;5087365;28;19943;-71
2023/10/27 12:57:23;;;;;;;;;;;11.80;99.90;;;;;;5087238;28;19920;-72
2023/10/27 12:59:51;;;;;;;;;;;11.90;99.90;;;;;;5086506;28;20202;-76
2023/10/27 13:02:17;;;;;;;;;;;12.00;99.90;;;;;;5087020;28;19948;-74
2023/10/27 13:04:44;;;;;;;;;;;12.00;99.90;;;;;;5086716;28;19992;-74
2023/10/27 13:07:11;;;;;;;;;;;12.10;99.90;;;;;;5086539;28;19920;-77
2023/10/27 13:09:39;;;;;;;;;;;12.10;99.90;;;;;;5093594;28;20205;-75
2023/10/27 13:12:08;;;;;;;;;;;12.10;99.90;;;;;;5086506;28;19959;-74
2023/10/27 13:14:35;;;;;;;;;;;12.20;99.90;;;;;;5086891;28;20265;-75
2023/10/27 13:17:02;;;;;;;;;;;12.40;99.90;;;;;;5086517;28;19927;-75
2023/10/27 13:19:29;;;;;;;;;;;12.70;99.90;;;;;;5085862;28;20113;-74
2023/10/27 13:21:56;;;;;;;;;;;13.00;99.90;;;;;;5086466;28;19926;-75
2023/10/27 13:24:23;;;;;;;;;;;13.30;99.90;;;;;;5086358;28;19959;-75
2023/10/27 13:26:52;;;;;;;;;;;13.60;99.90;;;;;;5086597;28;19920;-74
2023/10/27 13:29:19;;;;;;;;;;;13.70;99.90;;;;;;5086008;28;20109;-74
2023/10/27 13:31:47;;;;;;;;;;;13.70;99.90;;;;;;5086318;28;19921;-76
2023/10/27 13:34:14;;;;;;;;;;;13.60;99.90;;;;;;5086528;28;19920;-76
2023/10/27 13:36:43;;;;;;;;;;;13.50;99.90;;;;;;5086335;28;19920;-75
2023/10/27 13:39:09;;;;;;;;;;;13.30;99.90;;;;;;5085924;28;19921;-75
2023/10/27 13:41:36;;;;;;;;;;;13.00;99.90;;;;;;5086494;28;19984;-76
2023/10/27 13:44:05;;;;;;;;;;;12.90;99.90;;;;;;5086407;28;19927;-75
2023/10/27 13:46:32;;;;;;;;;;;12.60;99.90;;;;;;5086489;28;19983;-75
2023/10/27 13:48:59;;;;;;;;;;;12.50;99.90;;;;;;5085570;28;19980;-75
2023/10/27 13:51:25;;;;;;;;;;;12.40;99.90;;;;;;5086037;28;20225;-76
2023/10/27 13:53:52;;;;;;;;;;;12.20;99.90;;;;;;5086018;28;19927;-75
2023/10/27 13:56:19;;;;;;;;;;;12.00;99.90;;;;;;5086319;28;19991;-76
2023/10/27 13:58:45;;;;;;;;;;;11.90;99.90;;;;;;5085088;28;19982;-76
2023/10/27 14:01:14;;;;;;;;;;;11.80;99.90;;;;;;5085678;28;19928;-75
2023/10/27 14:03:40;;;;;;;;;;;11.70;99.90;;;;;;5086119;28;19951;-73
2023/10/27 14:06:08;;;;;;;;;;;11.70;99.90;;;;;;5085960;28;19992;-73
2023/10/27 14:08:35;;;;;;;;;;;11.60;99.90;;;;;;5077918;28;20017;-75
2023/10/27 14:11:05;;;;;;;;;;;11.80;99.90;;;;;;5090273;28;19927;-76
2023/10/27 14:13:32;;;;;;;;;;;11.80;99.90;;;;;;5085246;28;19921;-77
2023/10/27 14:15:58;;;;;;;;;;;11.90;99.90;;;;;;5085665;28;19959;-76
2023/10/27 14:18:27;;;;;;;;;;;11.80;99.90;;;;;;5084740;28;20105;-77
2023/10/27 14:20:54;;;;;;;;;;;11.80;99.90;;;;;;5085711;28;19920;-76
2023/10/27 14:23:20;;;;;;;;;;;11.80;99.90;;;;;;5085506;28;19920;-76
2023/10/27 14:25:47;;;;;;;;;;;11.90;99.90;;;;;;5085638;28;19979;-76
2023/10/27 14:28:14;;;;;;;;;;;11.90;99.90;;;;;;5093086;28;19976;-75
2023/10/27 14:30:40;;;;;;;;;;;12.00;99.90;;;;;;5095427;28;19967;-75
2023/10/27 14:33:08;;;;;;;;;;;12.00;99.90;;;;;;5099065;28;19960;-77
2023/10/27 14:35:36;;;;;;;;;;;12.10;99.90;;;;;;5093031;28;19920;-76
2023/10/27 14:38:03;;;;;;;;;;;12.10;99.90;;;;;;5085261;28;19926;-76
2023/10/27 14:40:29;;;;;;;;;;;12.20;99.90;;;;;;5090237;28;20241;-77
2023/10/27 14:42:57;;;;;;;;;;;12.40;99.90;;;;;;5085055;28;19928;-76
2023/10/27 14:45:24;;;;;;;;;;;12.50;99.90;;;;;;5084889;28;19987;-79
2023/10/27 14:47:51;;;;;;;;;;;12.60;99.90;;;;;;5084017;28;19928;-76
2023/10/27 14:50:17;;;;;;;;;;;12.60;99.90;;;;;;5084329;28;19928;-76
2023/10/27 14:52:45;;;;;;;;;;;12.60;99.90;;;;;;5084365;28;19955;-77
2023/10/27 14:55:14;;;;;;;;;;;12.50;99.90;;;;;;5083011;28;19955;-78
2023/10/27 14:57:41;;;;;;;;;;;12.50;99.90;;;;;;5083552;28;19958;-77
2023/10/27 15:00:10;;;;;;;;;;;12.40;99.90;;;;;;5084269;28;19929;-78
2023/10/27 15:02:36;;;;;;;;;;;12.40;99.90;;;;;;5084280;28;19920;-76
2023/10/27 15:05:03;;;;;;;;;;;12.30;99.90;;;;;;5084339;28;20003;-76
2023/10/27 15:07:30;;;;;;;;;;;12.30;99.90;;;;;;5084170;28;19925;-74
2023/10/27 15:09:58;;;;;;;;;;;12.30;99.90;;;;;;5085703;28;19929;-73